createdAt,value
2018-05-09T00:00:33.628Z,18.40
2018-05-09T00:02:37.087Z,18.40
2018-05-09T00:04:41.403Z,18.30
2018-05-09T00:06:44.805Z,18.40
2018-05-09T00:08:48.146Z,18.40
2018-05-09T00:10:51.480Z,18.40
2018-05-09T00:12:54.913Z,18.40
2018-05-09T00:14:58.863Z,18.30
2018-05-09T00:17:04.130Z,18.40
2018-05-09T00:19:07.525Z,18.40
2018-05-09T00:21:10.931Z,18.40
2018-05-09T00:23:14.392Z,18.40
2018-05-09T00:25:18.674Z,18.30
2018-05-09T00:27:22.023Z,18.30
2018-05-09T00:29:25.447Z,18.20
2018-05-09T00:31:28.679Z,18.20
2018-05-09T00:33:32.083Z,18.20
2018-05-09T00:35:36.262Z,18.20
2018-05-09T00:37:39.696Z,18.10
2018-05-09T00:39:43.072Z,18.20
2018-05-09T00:41:46.464Z,18.10
2018-05-09T00:43:49.794Z,18.00
2018-05-09T00:45:53.172Z,18.10
2018-05-09T00:47:56.535Z,18.10
2018-05-09T00:49:59.890Z,18.10
2018-05-09T00:52:04.094Z,18.00
2018-05-09T00:54:25.011Z,18.00
2018-05-09T00:56:28.875Z,18.10
2018-05-09T00:58:32.248Z,18.00
2018-05-09T01:00:35.578Z,18.00
2018-05-09T01:02:38.969Z,18.00
2018-05-09T01:04:42.440Z,17.90
2018-05-09T01:06:45.807Z,17.80
2018-05-09T01:08:49.152Z,17.80
2018-05-09T01:10:52.470Z,17.80
2018-05-09T01:12:55.795Z,17.80
2018-05-09T01:14:59.120Z,17.80
2018-05-09T01:17:02.590Z,17.80
2018-05-09T01:19:05.931Z,17.70
2018-05-09T01:21:09.333Z,17.70
2018-05-09T01:23:12.678Z,17.60
2018-05-09T01:25:16.101Z,17.60
2018-05-09T01:27:19.481Z,17.60
2018-05-09T01:29:22.857Z,17.60
2018-05-09T01:31:26.198Z,17.60
2018-05-09T01:33:29.536Z,17.50
2018-05-09T01:35:32.889Z,17.50
2018-05-09T01:37:36.185Z,17.40
2018-05-09T01:39:39.520Z,17.40
2018-05-09T01:41:42.912Z,17.40
2018-05-09T01:43:46.298Z,17.40
2018-05-09T01:45:49.614Z,17.40
2018-05-09T01:47:53.040Z,17.40
2018-05-09T01:49:56.432Z,17.30
2018-05-09T01:52:00.307Z,17.30
2018-05-09T01:54:04.421Z,17.30
2018-05-09T01:56:07.737Z,17.30
2018-05-09T01:58:11.032Z,17.30
2018-05-09T02:00:14.404Z,17.30
2018-05-09T02:02:17.722Z,17.20
2018-05-09T02:04:21.062Z,17.20
2018-05-09T02:06:24.379Z,17.20
2018-05-09T02:08:27.718Z,17.20
2018-05-09T02:10:31.023Z,17.20
2018-05-09T02:12:34.359Z,17.10
2018-05-09T02:14:37.662Z,17.10
2018-05-09T02:16:40.972Z,17.20
2018-05-09T02:18:45.084Z,17.30
2018-05-09T02:20:48.425Z,17.20
2018-05-09T02:22:51.805Z,17.30
2018-05-09T02:24:55.161Z,17.20
2018-05-09T02:26:58.504Z,17.20
2018-05-09T02:29:01.846Z,17.10
2018-05-09T02:31:06.008Z,17.20
2018-05-09T02:33:09.405Z,17.20
2018-05-09T02:35:12.826Z,17.20
2018-05-09T02:37:16.221Z,17.10
2018-05-09T02:39:19.591Z,17.00
2018-05-09T02:41:23.030Z,16.90
2018-05-09T02:43:27.120Z,16.80
2018-05-09T02:45:30.445Z,16.80
2018-05-09T02:47:33.823Z,16.80
2018-05-09T02:49:37.162Z,16.80
2018-05-09T02:51:40.514Z,16.80
2018-05-09T02:53:44.053Z,16.80
2018-05-09T02:58:42.864Z,16.80
2018-05-09T03:00:46.186Z,16.70
2018-05-09T03:02:49.564Z,16.70
2018-05-09T03:04:52.897Z,16.70
2018-05-09T03:06:56.304Z,16.60
2018-05-09T03:08:59.833Z,16.60
2018-05-09T03:11:03.169Z,16.60
2018-05-09T03:13:06.506Z,16.50
2018-05-09T03:15:09.952Z,16.50
2018-05-09T03:17:13.269Z,16.50
2018-05-09T03:19:16.606Z,16.50
2018-05-09T03:21:20.041Z,16.50
2018-05-09T03:23:23.413Z,16.50
2018-05-09T03:25:26.739Z,16.50
2018-05-09T03:27:30.375Z,16.60
2018-05-09T03:29:33.752Z,16.50
2018-05-09T03:31:37.129Z,16.50
2018-05-09T03:33:40.467Z,16.40
2018-05-09T03:35:43.900Z,16.40
2018-05-09T03:37:48.048Z,16.50
2018-05-09T03:39:51.413Z,16.50
2018-05-09T03:41:55.744Z,16.50
2018-05-09T03:43:59.087Z,16.50
2018-05-09T03:46:02.491Z,16.50
2018-05-09T03:48:05.850Z,16.50
2018-05-09T03:50:09.278Z,16.40
2018-05-09T03:52:12.704Z,16.40
2018-05-09T03:54:16.118Z,16.40
2018-05-09T03:56:19.451Z,16.40
2018-05-09T03:58:23.571Z,16.40
2018-05-09T04:00:27.699Z,16.40
2018-05-09T04:02:50.374Z,16.40
2018-05-09T04:05:11.467Z,16.40
2018-05-09T04:07:32.367Z,16.50
2018-05-09T04:12:16.356Z,16.40
2018-05-09T04:14:19.677Z,16.40
2018-05-09T04:16:23.826Z,16.40
2018-05-09T04:18:27.229Z,16.40
2018-05-09T04:20:30.560Z,16.50
2018-05-09T04:22:51.233Z,16.50
2018-05-09T04:24:54.720Z,16.50
2018-05-09T04:26:58.045Z,16.60
2018-05-09T04:29:01.353Z,16.50
2018-05-09T04:31:05.518Z,16.60
2018-05-09T04:33:08.837Z,16.50
2018-05-09T04:35:12.177Z,16.50
2018-05-09T04:37:15.552Z,16.60
2018-05-09T04:39:18.888Z,16.70
2018-05-09T04:41:22.223Z,16.70
2018-05-09T04:43:25.578Z,16.70
2018-05-09T04:45:28.910Z,16.70
2018-05-09T04:47:33.010Z,16.80
2018-05-09T04:49:36.330Z,16.80
2018-05-09T04:51:40.464Z,16.90
2018-05-09T04:53:43.796Z,16.90
2018-05-09T04:55:47.343Z,17.00
2018-05-09T04:57:50.672Z,17.00
2018-05-09T04:59:53.999Z,17.00
2018-05-09T05:01:58.157Z,17.10
2018-05-09T05:04:01.531Z,17.00
2018-05-09T05:06:04.847Z,17.10
2018-05-09T05:08:08.222Z,17.00
2018-05-09T05:10:11.583Z,17.10
2018-05-09T05:12:15.374Z,17.10
2018-05-09T05:14:19.572Z,17.20
2018-05-09T05:16:23.743Z,17.30
2018-05-09T05:18:27.113Z,17.30
2018-05-09T05:20:30.538Z,17.30
2018-05-09T05:22:34.061Z,17.30
2018-05-09T05:24:37.471Z,17.40
2018-05-09T05:26:41.639Z,17.40
2018-05-09T05:28:45.035Z,17.40
2018-05-09T05:30:48.431Z,17.50
2018-05-09T05:32:52.064Z,17.60
2018-05-09T05:34:56.369Z,17.60
2018-05-09T05:37:00.514Z,17.70
2018-05-09T05:39:04.016Z,17.70
2018-05-09T05:41:07.424Z,17.80
2018-05-09T05:43:10.883Z,17.80
2018-05-09T05:45:14.522Z,17.80
2018-05-09T05:47:18.074Z,17.80
2018-05-09T05:49:22.140Z,17.90
2018-05-09T05:51:25.679Z,17.90
2018-05-09T05:53:29.913Z,18.00
2018-05-09T05:55:33.317Z,18.10
2018-05-09T05:57:36.745Z,18.10
2018-05-09T05:59:40.100Z,18.20
2018-05-09T06:01:43.685Z,18.20
2018-05-09T06:03:47.828Z,18.30
2018-05-09T06:05:51.191Z,18.30
2018-05-09T06:07:54.664Z,18.30
2018-05-09T06:09:57.970Z,18.40
2018-05-09T06:12:01.447Z,18.50
2018-05-09T06:14:04.871Z,18.50
2018-05-09T06:16:08.255Z,18.60
2018-05-09T06:18:11.873Z,18.60
2018-05-09T06:20:16.527Z,18.70
2018-05-09T06:22:19.918Z,18.70
2018-05-09T06:24:23.249Z,18.80
2018-05-09T06:26:26.606Z,18.80
2018-05-09T06:28:30.609Z,18.90
2018-05-09T06:30:33.983Z,18.90
2018-05-09T06:32:37.347Z,19.00
2018-05-09T06:34:40.816Z,19.00
2018-05-09T06:36:44.981Z,19.10
2018-05-09T06:38:48.476Z,19.10
2018-05-09T06:40:52.545Z,19.10
2018-05-09T06:42:55.955Z,19.20
2018-05-09T06:44:59.323Z,19.20
2018-05-09T06:47:03.549Z,19.30
2018-05-09T06:49:07.662Z,19.40
2018-05-09T06:51:11.951Z,19.40
2018-05-09T06:53:15.484Z,19.50
2018-05-09T06:55:18.881Z,19.50
2018-05-09T06:57:23.133Z,19.60
2018-05-09T06:59:26.556Z,19.60
2018-05-09T07:01:30.733Z,19.70
2018-05-09T07:03:34.165Z,19.70
2018-05-09T07:05:38.367Z,19.80
2018-05-09T07:07:42.539Z,19.90
2018-05-09T07:09:45.890Z,19.90
2018-05-09T07:11:49.253Z,19.90
2018-05-09T07:13:53.552Z,20.00
2018-05-09T07:15:57.120Z,20.00
2018-05-09T07:18:00.501Z,20.00
2018-05-09T07:20:04.013Z,20.10
2018-05-09T07:22:07.367Z,20.20
2018-05-09T07:24:11.549Z,20.20
2018-05-09T07:26:14.866Z,20.20
2018-05-09T07:28:18.211Z,20.30
2018-05-09T07:30:21.587Z,20.40
2018-05-09T07:32:25.287Z,20.40
2018-05-09T07:34:28.656Z,20.40
2018-05-09T07:36:32.761Z,20.50
2018-05-09T07:38:36.887Z,20.50
2018-05-09T07:40:40.321Z,20.50
2018-05-09T07:42:43.694Z,20.50
2018-05-09T07:44:47.126Z,20.60
2018-05-09T07:46:50.486Z,20.70
2018-05-09T07:48:53.957Z,20.70
2018-05-09T07:50:58.010Z,20.80
2018-05-09T07:53:01.381Z,20.70
2018-05-09T07:55:04.704Z,20.80
2018-05-09T07:57:08.017Z,20.90
2018-05-09T07:59:12.109Z,21.00
2018-05-09T08:01:15.496Z,21.00
2018-05-09T08:03:19.241Z,21.00
2018-05-09T08:05:22.645Z,21.00
2018-05-09T08:07:26.762Z,21.10
2018-05-09T08:09:31.896Z,21.10
2018-05-09T08:11:35.253Z,21.10
2018-05-09T08:13:40.487Z,21.20
2018-05-09T08:15:43.979Z,21.20
2018-05-09T08:17:47.280Z,21.30
2018-05-09T08:19:50.663Z,21.40
2018-05-09T08:21:54.057Z,21.50
2018-05-09T08:23:57.416Z,21.60
2018-05-09T08:26:00.831Z,21.60
2018-05-09T08:28:04.223Z,21.70
2018-05-09T08:30:07.543Z,21.80
2018-05-09T08:32:10.896Z,21.80
2018-05-09T08:34:14.310Z,21.80
2018-05-09T08:36:17.666Z,21.90
2018-05-09T08:38:21.013Z,22.00
2018-05-09T08:40:25.144Z,22.10
2018-05-09T08:42:28.526Z,22.00
2018-05-09T08:44:31.840Z,22.10
2018-05-09T08:46:35.595Z,22.10
2018-05-09T08:48:38.943Z,22.10
2018-05-09T08:50:42.315Z,22.10
2018-05-09T08:52:45.654Z,22.20
2018-05-09T08:54:48.988Z,22.20
2018-05-09T08:56:52.353Z,22.30
2018-05-09T08:58:55.802Z,22.30
2018-05-09T09:00:59.166Z,22.40
2018-05-09T09:03:03.300Z,22.60
2018-05-09T09:05:06.640Z,22.60
2018-05-09T09:07:09.962Z,22.70
2018-05-09T09:09:13.332Z,22.70
2018-05-09T09:11:16.656Z,22.80
2018-05-09T09:13:19.978Z,22.80
2018-05-09T09:15:23.492Z,22.80
2018-05-09T09:17:26.795Z,22.80
2018-05-09T09:19:30.174Z,22.90
2018-05-09T09:21:33.640Z,23.10
2018-05-09T09:23:36.957Z,23.10
2018-05-09T09:25:40.273Z,23.20
2018-05-09T09:27:44.289Z,23.30
2018-05-09T09:29:47.660Z,23.30
2018-05-09T09:31:50.973Z,23.40
2018-05-09T09:33:54.312Z,23.50
2018-05-09T09:35:57.632Z,23.60
2018-05-09T09:38:01.214Z,23.60
2018-05-09T09:40:04.694Z,23.60
2018-05-09T09:42:08.385Z,23.80
2018-05-09T09:44:11.708Z,23.80
2018-05-09T09:46:15.075Z,23.80
2018-05-09T09:48:18.401Z,23.90
2018-05-09T09:50:21.832Z,24.00
2018-05-09T09:52:25.310Z,24.10
2018-05-09T09:54:28.663Z,24.10
2018-05-09T09:56:32.059Z,24.20
2018-05-09T09:58:35.467Z,24.30
2018-05-09T10:00:39.067Z,24.40
2018-05-09T10:02:42.408Z,24.40
2018-05-09T10:04:45.849Z,24.40
2018-05-09T10:06:49.319Z,24.40
2018-05-09T10:08:52.694Z,24.50
2018-05-09T10:10:56.038Z,24.60
2018-05-09T10:13:00.420Z,24.60
2018-05-09T10:15:03.832Z,24.70
2018-05-09T10:17:07.251Z,24.70
2018-05-09T10:19:12.218Z,24.80
2018-05-09T10:21:17.030Z,24.80
2018-05-09T10:23:21.024Z,24.90
2018-05-09T10:25:25.827Z,25.10
2018-05-09T10:27:30.520Z,25.00
2018-05-09T10:29:35.152Z,25.10
2018-05-09T10:31:39.134Z,25.10
2018-05-09T10:33:42.509Z,25.10
2018-05-09T10:35:46.686Z,25.10
2018-05-09T10:37:50.874Z,25.20
2018-05-09T10:39:54.198Z,25.20
2018-05-09T10:41:57.542Z,25.30
2018-05-09T10:44:01.840Z,25.40
2018-05-09T10:46:05.154Z,25.40
2018-05-09T10:48:08.519Z,25.40
2018-05-09T10:50:12.813Z,25.40
2018-05-09T10:52:16.474Z,25.40
2018-05-09T10:54:19.890Z,25.50
2018-05-09T10:56:23.214Z,25.60
2018-05-09T10:58:27.317Z,25.70
2018-05-09T11:00:30.735Z,25.60
2018-05-09T11:02:34.312Z,25.70
2018-05-09T11:04:41.073Z,25.70
2018-05-09T11:06:44.627Z,25.90
2018-05-09T11:08:47.976Z,25.90
2018-05-09T11:10:51.345Z,25.90
2018-05-09T11:12:54.877Z,25.80
2018-05-09T11:14:58.310Z,25.70
2018-05-09T11:17:01.881Z,25.70
2018-05-09T11:19:05.441Z,25.80
2018-05-09T11:21:08.770Z,25.80
2018-05-09T11:23:12.127Z,25.80
2018-05-09T11:25:15.579Z,25.80
2018-05-09T11:27:19.781Z,25.90
2018-05-09T11:29:24.780Z,26.00
2018-05-09T11:31:28.886Z,26.00
2018-05-09T11:33:32.242Z,25.90
2018-05-09T11:35:35.538Z,26.00
2018-05-09T11:37:38.944Z,26.20
2018-05-09T11:39:42.254Z,26.20
2018-05-09T11:41:45.641Z,26.20
2018-05-09T11:43:49.773Z,26.00
2018-05-09T11:45:53.108Z,26.00
2018-05-09T11:47:56.515Z,26.00
2018-05-09T11:49:59.849Z,26.10
2018-05-09T11:52:03.169Z,26.30
2018-05-09T11:54:06.494Z,26.30
2018-05-09T11:56:09.862Z,26.30
2018-05-09T11:58:13.223Z,26.40
2018-05-09T12:00:16.575Z,26.50
2018-05-09T12:02:19.968Z,26.50
2018-05-09T12:04:24.415Z,26.50
2018-05-09T12:06:27.762Z,26.50
2018-05-09T12:08:31.144Z,26.50
2018-05-09T12:10:34.621Z,26.50
2018-05-09T12:12:37.897Z,26.60
2018-05-09T12:14:41.228Z,26.60
2018-05-09T12:16:44.584Z,26.60
2018-05-09T12:18:47.924Z,26.80
2018-05-09T12:20:51.285Z,26.70
2018-05-09T12:22:54.607Z,26.80
2018-05-09T12:24:57.954Z,27.00
2018-05-09T12:27:02.615Z,27.10
2018-05-09T12:29:05.935Z,27.00
2018-05-09T12:31:09.250Z,27.00
2018-05-09T12:33:13.380Z,26.90
2018-05-09T12:35:16.742Z,26.90
2018-05-09T12:37:20.152Z,26.90
2018-05-09T12:39:23.636Z,27.00
2018-05-09T12:41:27.734Z,27.10
2018-05-09T12:43:31.075Z,27.00
2018-05-09T12:45:34.408Z,27.20
2018-05-09T12:47:37.781Z,27.20
2018-05-09T12:49:41.638Z,27.30
2018-05-09T12:51:45.017Z,27.40
2018-05-09T12:53:49.381Z,27.60
2018-05-09T12:55:52.716Z,27.60
2018-05-09T12:57:56.899Z,27.80
2018-05-09T13:00:00.278Z,27.70
2018-05-09T13:02:03.591Z,27.80
2018-05-09T13:04:06.966Z,27.80
2018-05-09T13:06:10.329Z,27.80
2018-05-09T13:08:13.670Z,27.90
2018-05-09T13:10:17.017Z,28.00
2018-05-09T13:12:21.132Z,28.10
2018-05-09T13:14:24.445Z,28.00
2018-05-09T13:16:28.152Z,28.10
2018-05-09T13:18:31.606Z,28.30
2018-05-09T13:20:35.028Z,28.20
2018-05-09T13:24:48.774Z,28.30
2018-05-09T13:26:52.312Z,28.30
2018-05-09T13:28:55.674Z,28.40
2018-05-09T13:30:58.995Z,28.50
2018-05-09T13:33:02.372Z,28.50
2018-05-09T13:35:05.765Z,28.60
2018-05-09T13:37:09.297Z,28.70
2018-05-09T13:39:12.727Z,28.70
2018-05-09T13:41:16.763Z,28.70
2018-05-09T13:43:20.181Z,28.80
2018-05-09T13:45:23.564Z,28.70
2018-05-09T13:47:26.952Z,28.80
2018-05-09T13:49:30.502Z,29.00
2018-05-09T13:51:33.854Z,29.10
2018-05-09T13:53:37.204Z,29.10
2018-05-09T13:55:40.979Z,29.20
2018-05-09T13:57:44.322Z,29.30
2018-05-09T13:59:47.746Z,29.40
2018-05-09T14:01:51.118Z,29.50
2018-05-09T14:03:54.476Z,29.50
2018-05-09T14:05:57.852Z,29.50
2018-05-09T14:08:01.167Z,29.40
2018-05-09T14:10:04.713Z,29.50
2018-05-09T14:12:08.848Z,29.50
2018-05-09T14:14:12.183Z,29.40
2018-05-09T14:16:15.517Z,29.40
2018-05-09T14:18:19.686Z,29.60
2018-05-09T14:20:23.024Z,29.50
2018-05-09T14:22:26.339Z,29.50
2018-05-09T14:24:29.669Z,29.40
2018-05-09T14:26:32.992Z,29.30
2018-05-09T14:28:36.301Z,28.90
2018-05-09T14:30:39.661Z,28.70
2018-05-09T14:32:43.013Z,28.80
2018-05-09T14:34:46.343Z,28.80
2018-05-09T14:36:51.019Z,28.40
2018-05-09T14:38:54.426Z,28.40
2018-05-09T14:40:57.747Z,28.40
2018-05-09T14:43:01.086Z,28.20
2018-05-09T14:45:04.453Z,28.10
2018-05-09T14:47:14.027Z,27.80
2018-05-09T14:49:17.879Z,27.60
2018-05-09T14:51:21.945Z,27.30
2018-05-09T14:53:25.317Z,27.30
2018-05-09T14:55:28.751Z,27.30
2018-05-09T14:57:32.158Z,27.20
2018-05-09T14:59:35.515Z,27.20
2018-05-09T15:01:39.283Z,27.10
2018-05-09T15:03:42.657Z,27.10
2018-05-09T15:05:54.284Z,27.00
2018-05-09T15:07:58.110Z,27.00
2018-05-09T15:10:01.524Z,26.90
2018-05-09T15:12:04.846Z,26.80
2018-05-09T15:14:10.596Z,26.70
2018-05-09T15:16:14.142Z,26.70
2018-05-09T15:18:17.464Z,26.70
2018-05-09T15:20:20.816Z,26.70
2018-05-09T15:22:24.135Z,26.70
2018-05-09T15:24:27.469Z,26.70
2018-05-09T15:26:30.810Z,26.70
2018-05-09T15:28:48.299Z,26.70
2018-05-09T15:30:54.981Z,26.70
2018-05-09T15:32:59.393Z,26.70
2018-05-09T15:35:03.032Z,26.70
2018-05-09T15:37:07.422Z,26.80
2018-05-09T15:39:10.971Z,26.70
2018-05-09T15:41:14.379Z,26.80
2018-05-09T15:43:17.715Z,26.80
2018-05-09T15:45:21.118Z,26.80
2018-05-09T15:47:24.437Z,26.90
2018-05-09T15:49:27.785Z,26.80
2018-05-09T15:51:31.153Z,26.90
2018-05-09T15:53:35.316Z,26.80
2018-05-09T15:55:38.631Z,26.80
2018-05-09T15:57:41.937Z,26.90
2018-05-09T15:59:45.257Z,26.80
2018-05-09T16:01:48.632Z,26.90
2018-05-09T16:03:52.075Z,27.00
2018-05-09T16:05:55.432Z,27.00
2018-05-09T16:07:58.787Z,27.00
2018-05-09T16:10:02.414Z,27.00
2018-05-09T16:12:05.724Z,27.10
2018-05-09T16:14:09.586Z,27.00
2018-05-09T16:16:13.672Z,27.10
2018-05-09T16:18:17.001Z,27.10
2018-05-09T16:20:20.315Z,27.10
2018-05-09T16:22:23.755Z,27.10
2018-05-09T16:24:27.172Z,27.10
2018-05-09T16:26:30.515Z,27.00
2018-05-09T16:28:33.882Z,27.10
2018-05-09T16:30:37.462Z,27.00
2018-05-09T16:32:40.969Z,27.00
2018-05-09T16:34:45.176Z,27.00
2018-05-09T16:36:49.413Z,27.00
2018-05-09T16:38:53.510Z,27.00
2018-05-09T16:40:57.659Z,26.80
2018-05-09T16:43:00.986Z,26.80
2018-05-09T16:45:04.518Z,26.80
2018-05-09T16:47:07.874Z,26.80
2018-05-09T16:49:11.193Z,26.70
2018-05-09T16:51:14.557Z,26.70
2018-05-09T16:53:18.032Z,26.50
2018-05-09T16:55:21.308Z,26.50
2018-05-09T16:57:24.708Z,26.40
2018-05-09T16:59:28.049Z,26.30
2018-05-09T17:01:31.427Z,26.30
2018-05-09T17:03:34.936Z,26.20
2018-05-09T17:05:39.174Z,26.00
2018-05-09T17:07:42.619Z,26.00
2018-05-09T17:09:46.085Z,26.00
2018-05-09T17:11:49.512Z,26.00
2018-05-09T17:13:52.869Z,25.90
2018-05-09T17:15:57.310Z,26.00
2018-05-09T17:18:00.772Z,25.90
2018-05-09T17:20:04.107Z,25.90
2018-05-09T17:22:27.883Z,25.90
2018-05-09T17:24:31.902Z,25.90
2018-05-09T17:26:36.297Z,25.90
2018-05-09T17:28:40.422Z,25.90
2018-05-09T17:30:43.846Z,25.90
2018-05-09T17:32:47.099Z,26.00
2018-05-09T17:34:50.479Z,26.00
2018-05-09T17:36:53.977Z,26.00
2018-05-09T17:38:57.276Z,26.00
2018-05-09T17:41:00.667Z,26.00
2018-05-09T17:43:04.076Z,26.00
2018-05-09T17:45:07.437Z,26.00
2018-05-09T17:47:11.007Z,26.00
2018-05-09T17:49:14.423Z,26.00
2018-05-09T17:51:17.826Z,25.90
2018-05-09T17:53:21.187Z,25.90
2018-05-09T17:55:25.314Z,25.70
2018-05-09T17:57:29.284Z,25.70
2018-05-09T17:59:32.611Z,25.70
2018-05-09T18:01:35.980Z,25.60
2018-05-09T18:03:39.361Z,25.60
2018-05-09T18:05:42.745Z,25.50
2018-05-09T18:07:46.949Z,25.40
2018-05-09T18:09:50.340Z,25.40
2018-05-09T18:11:54.435Z,25.30
2018-05-09T18:13:58.580Z,25.20
2018-05-09T18:16:02.717Z,25.10
2018-05-09T18:18:06.143Z,25.10
2018-05-09T18:20:09.496Z,25.10
2018-05-09T18:22:12.813Z,25.00
2018-05-09T18:24:16.191Z,24.90
2018-05-09T18:26:19.673Z,24.90
2018-05-09T18:28:23.797Z,24.80
2018-05-09T18:30:28.323Z,24.80
2018-05-09T18:32:33.936Z,24.70
2018-05-09T18:34:37.473Z,24.70
2018-05-09T18:36:40.789Z,24.70
2018-05-09T18:38:44.149Z,24.60
2018-05-09T18:40:47.457Z,24.60
2018-05-09T18:42:50.808Z,24.60
2018-05-09T18:44:54.152Z,24.50
2018-05-09T18:46:57.461Z,24.50
2018-05-09T18:49:00.767Z,24.40
2018-05-09T18:51:04.133Z,24.40
2018-05-09T18:53:07.493Z,24.40
2018-05-09T18:55:10.833Z,24.30
2018-05-09T18:57:15.075Z,24.30
2018-05-09T18:59:18.637Z,24.30
2018-05-09T19:01:22.380Z,24.20
2018-05-09T19:03:25.797Z,24.20
2018-05-09T19:05:29.128Z,24.10
2018-05-09T19:07:32.473Z,24.10
2018-05-09T19:09:35.847Z,24.10
2018-05-09T19:11:39.962Z,24.10
2018-05-09T19:15:55.367Z,24.00
2018-05-09T19:17:58.724Z,24.00
2018-05-09T19:20:02.800Z,24.00
2018-05-09T19:22:06.137Z,24.00
2018-05-09T19:24:09.521Z,24.00
2018-05-09T19:26:12.990Z,24.00
2018-05-09T19:28:16.439Z,24.00
2018-05-09T19:30:19.751Z,24.00
2018-05-09T19:32:23.092Z,24.00
2018-05-09T19:34:27.224Z,23.90
2018-05-09T19:36:30.562Z,23.90
2018-05-09T19:38:34.713Z,23.90
2018-05-09T19:40:38.019Z,23.90
2018-05-09T19:42:41.483Z,23.90
2018-05-09T19:44:44.833Z,23.90
2018-05-09T19:46:48.149Z,23.80
2018-05-09T19:48:51.459Z,23.90
2018-05-09T19:50:54.782Z,24.00
2018-05-09T19:52:58.121Z,24.00
2018-05-09T19:55:01.592Z,23.90
2018-05-09T19:57:04.811Z,23.80
2018-05-09T19:59:08.505Z,23.70
2018-05-09T20:01:11.883Z,23.70
2018-05-09T20:03:15.633Z,23.60
2018-05-09T20:05:19.776Z,23.50
2018-05-09T20:07:23.475Z,23.50
2018-05-09T20:09:26.885Z,23.50
2018-05-09T20:11:30.757Z,23.50
2018-05-09T20:13:34.115Z,23.40
2018-05-09T20:15:37.486Z,23.30
2018-05-09T20:17:40.915Z,23.30
2018-05-09T20:19:44.314Z,23.20
2018-05-09T20:21:47.668Z,23.20
2018-05-09T20:23:51.775Z,23.10
2018-05-09T20:25:55.093Z,23.10
2018-05-09T20:27:58.394Z,23.10
2018-05-09T20:30:01.746Z,23.00
2018-05-09T20:32:22.700Z,22.90
2018-05-09T20:34:26.097Z,22.80
2018-05-09T20:36:29.650Z,22.80
2018-05-09T20:38:33.059Z,22.70
2018-05-09T20:40:36.503Z,22.70
2018-05-09T20:42:39.884Z,22.80
2018-05-09T20:44:56.238Z,22.70
2018-05-09T20:49:23.594Z,22.60
2018-05-09T20:51:47.749Z,22.50
2018-05-09T20:53:55.195Z,22.50
2018-05-09T20:55:58.674Z,22.40
2018-05-09T20:58:02.083Z,22.40
2018-05-09T21:00:09.544Z,22.30
2018-05-09T21:02:14.557Z,22.40
2018-05-09T21:06:42.295Z,22.30
2018-05-09T21:08:45.738Z,22.30
2018-05-09T21:10:49.072Z,22.30
2018-05-09T21:12:52.461Z,22.20
2018-05-09T21:14:55.824Z,22.30
2018-05-09T21:16:59.302Z,22.30
2018-05-09T21:19:02.664Z,22.20
2018-05-09T21:21:06.226Z,22.20
2018-05-09T21:23:09.721Z,22.20
2018-05-09T21:25:13.360Z,22.20
2018-05-09T21:27:16.839Z,22.20
2018-05-09T21:29:20.928Z,22.20
2018-05-09T21:31:24.319Z,22.20
2018-05-09T21:33:27.792Z,22.10
2018-05-09T21:35:31.590Z,22.20
2018-05-09T21:37:35.001Z,22.20
2018-05-09T21:39:38.412Z,22.20
2018-05-09T21:41:41.793Z,22.10
2018-05-09T21:43:45.962Z,22.00
2018-05-09T21:45:49.338Z,22.00
2018-05-09T21:47:52.934Z,21.90
2018-05-09T21:49:56.433Z,21.90
2018-05-09T21:51:59.901Z,21.90
2018-05-09T21:54:03.300Z,21.80
2018-05-09T21:56:06.990Z,21.80
2018-05-09T21:58:10.387Z,21.90
2018-05-09T22:00:14.023Z,21.80
2018-05-09T22:02:17.363Z,21.80
2018-05-09T22:04:21.234Z,21.60
2018-05-09T22:06:24.998Z,21.70
2018-05-09T22:08:28.400Z,21.60
2018-05-09T22:10:32.561Z,21.40
2018-05-09T22:12:35.968Z,21.40
2018-05-09T22:14:39.359Z,21.30
2018-05-09T22:16:42.752Z,21.20
2018-05-09T22:18:46.123Z,21.20
2018-05-09T22:20:49.487Z,21.30
2018-05-09T22:22:53.642Z,21.10
2018-05-09T22:24:56.976Z,21.10
2018-05-09T22:27:00.469Z,21.10
2018-05-09T22:29:04.586Z,21.00
2018-05-09T22:31:07.903Z,20.90
2018-05-09T22:33:11.221Z,20.80
2018-05-09T22:35:14.627Z,20.80
2018-05-09T22:37:18.337Z,20.80
2018-05-09T22:39:22.532Z,20.70
2018-05-09T22:41:25.954Z,20.60
2018-05-09T22:43:29.271Z,20.50
2018-05-09T22:45:32.602Z,20.50
2018-05-09T22:47:35.986Z,20.50
2018-05-09T22:49:39.324Z,20.40
2018-05-09T22:51:42.711Z,20.40
2018-05-09T22:53:46.467Z,20.40
2018-05-09T22:55:49.804Z,20.30
2018-05-09T22:57:53.930Z,20.20
2018-05-09T22:59:57.289Z,20.10
2018-05-09T23:02:03.744Z,20.00
2018-05-09T23:04:07.075Z,19.90
2018-05-09T23:06:10.657Z,19.80
2018-05-09T23:08:14.060Z,19.70
2018-05-09T23:10:17.482Z,19.70
2018-05-09T23:14:32.740Z,19.70
2018-05-09T23:16:37.369Z,19.60
2018-05-09T23:18:42.405Z,19.50
2018-05-09T23:20:46.568Z,19.50
2018-05-09T23:22:49.887Z,19.40
2018-05-09T23:24:53.287Z,19.50
2018-05-09T23:26:57.425Z,19.30
2018-05-09T23:29:00.788Z,19.30
2018-05-09T23:31:04.169Z,19.30
2018-05-09T23:33:07.498Z,19.30
2018-05-09T23:35:10.867Z,19.20
2018-05-09T23:37:14.257Z,19.20
2018-05-09T23:39:17.563Z,19.20
2018-05-09T23:41:29.013Z,19.10
2018-05-09T23:43:49.807Z,19.20
2018-05-09T23:45:58.733Z,19.10
2018-05-09T23:48:19.671Z,19.10
2018-05-09T23:50:27.528Z,19.10
2018-05-09T23:52:44.417Z,19.00
2018-05-09T23:54:57.777Z,19.00
